Meteo Giornale » Osservazioni meteo Stati Uniti (USA) » Hastings Hastings
ore: 16:53 - Osservazioni Meteo Hastings Hastings
Lat. 40° 36' N Lon. 98° 25' W Alt. 595 metri s.l.m.
34 °C
Poco Nuvoloso
Temp. 24 Ore
22 °C
34 °C
Sud/Sud-Ovest
9.3 Km/h
Dew point 22 °C
Umidità 49 %
Visibilità 10 Km
Il sole sorge alle ore 07:01
Il sole tramonta alle ore 20:06
| Data e Ora | Cielo e Fenomeni | T °C | DP °C | Um. % | Pres. hPa | Vis. km | Vento km/h | |
|---|---|---|---|---|---|---|---|---|
| Oggi h: 16:53 | Poco Nuvoloso | 34 | 22 | 49 | 1012 | 10 | S/SO 9.3 | |
| Oggi h: 15:53 | Poco Nuvoloso | 33 | 22 | 52 | 1013 | 10 | N 9.3 | |
| Oggi h: 14:53 | Sereno | 32 | 22 | 55 | 1014 | 10 | S/SO 13 | |
| Oggi h: 13:53 | Sereno | 31 | 22 | 58 | 1014 | 10 | S 13 | |
| Oggi h: 12:53 | Sereno | 30 | 22 | 62 | 1015 | 10 | S 11.1 | |
| Oggi h: 11:53 | Sereno | 29 | 21 | 62 | 1015 | 10 | N 11.1 | |
| Oggi h: 10:53 | Sereno | 27 | 22 | 74 | 1014 | 10 | N/NE 11.1 | |
| Oggi h: 09:53 | Sereno | 25 | 21 | 78 | 1014 | 10 | N 9.3 | |
| Oggi h: 08:53 | Sereno | 23 | 20 | 83 | 1014 | 10 | N/NO 13 | |
| Oggi h: 07:53 | Sereno | 22 | 18 | 78 | 1014 | 10 | O 9.3 | |
| Oggi h: 06:53 | Sereno | 22 | 17 | 73 | 1014 | 10 | N 5.5 | |
| Oggi h: 05:53 | Sereno | 23 | 18 | 73 | 1013 | 10 | S/SE 11.1 | |
| Oggi h: 04:53 | Sereno | 24 | 18 | 69 | 1014 | 10 | S/SE 7.4 | |
| Oggi h: 03:53 | Poco Nuvoloso | 24 | 19 | 73 | 1014 | 10 | SE 7.4 | |
| Oggi h: 02:53 | Sereno | 25 | 19 | 69 | 1014 | 10 | SE 9.3 | |
| Oggi h: 01:53 | Sereno | 23 | 21 | 88 | 1014 | 10 | E/NE 7.4 | |
| Oggi h: 00:53 | Sereno | 23 | 21 | 88 | 1015 | 10 | N 5.5 | |
| Ieri h: 23:53 | Sereno | 23 | 21 | 88 | 1015 | 10 | NE 7.4 | |
| Ieri h: 22:53 | Sereno | 25 | 21 | 78 | 1015 | 10 | N 5.5 | |
| Ieri h: 21:53 | Sereno | 26 | 21 | 73 | 1015 | 10 | E 9.3 | |
| Ieri h: 20:53 | Sereno | 27 | 20 | 65 | 1014 | 10 | E 11.1 | |
| Ieri h: 19:53 | Sereno | 28 | 20 | 61 | 1014 | 10 | E 7.4 | |
| Ieri h: 18:53 | Sereno | 29 | 21 | 62 | 1014 | 10 | E/NE 11.1 | |
| Ieri h: 17:53 | Sereno | 32 | 18 | 43 | 1014 | 10 | N 0 | |



